Aérodrome :
LOGIN :

S'inscrire | Disclaimer

   EN    FR    IT 

 










Légende :    VFR   VFR Marginal   IFR   IFR Intensif   IFR Très Intensif
Visi : 
Plafond : 
>= 8 km
>= 3000ft
5 à 8 km
1000 à 3000 ft
1500m à 5 km
500 à 1000 ft
800 à 1500m
200 à 500 ft
< 800m
< 200 ft
Symboles :   Orages  Brouillard  Fortes neiges  Fortes précipitations  Vent > 20 kt
SIGMETs :   Divers  Orages  Givrage  Turbulence  Onde Orograph.  Cendres Volcan.







- Altitude de l'aérodrome : 768 ft
- Code IATA : MXP


LIMC - Milano Malpensa

DERNIER METAR :
  • 241520Z 35010KT 9999 SCT040 BKN070 13/10 Q1025 NOSIG

METARs EXPIRÉS :
  • 241450Z 36011KT 9999 SCT040 BKN070 13/10 Q1025 NOSIG
  • 241420Z 35009KT 9999 SCT040 BKN080 13/11 Q1025 NOSIG
  • 241350Z 36009KT 9999 BKN040 BKN080 12/10 Q1025 NOSIG
  • 241320Z 35007KT 9999 BKN050 BKN080 12/11 Q1025 NOSIG
  • 241250Z 34007KT 9999 OVC050 12/11 Q1025 NOSIG

TAF TAF LIMC
Valide du 24 à 12h jusqu'au 25 à 18h UTC


241100Z 2412/2518 01007KT 9999 SCT030 BKN060
TEMPO 2500/2507 3000 BCFG
TEMPO 2515/2518 4000 SHRA
Pas de NOTAMs connus pour ce terrain.



MET'MAP, la Météo Aéronautique d'un coup d'oeil ! - Copyright ORBIFLY Décembre 2007 - Disclaimer

ORBIFLY MET'MAP TEAM :

Programmation & Développement : Alexandra Zaïnal
Conception & Développement : Baudouin d'Aumeries
Co-Programmation & Développement : Marc-Olivier Méhu
Soutien technique & logistique : Manuel Goepfert

Contact : metmap@orbifly.com




SOURCES & CREDITS :

   NOAA